Stepnogorsk, Kazakhstan
Current Conditions -  °F | °C
As of 4:00 PM on Friday 19 Dec 2014 (Local Time) from UACC Reporting Station
Clear Clear  
Wind Chill: -2°   Ceiling: Unl
Heat Index:   Visibility: 5mi
Dew Point: -2°   Wind: 4mph
Humidity: 67%   Direction: 120°ESE
Pressure: 30.39"   Gusts: NA
Location:  52.18°N, 72.43°E
Report Text: UACC 191000Z 12002MPS 080V140 8000 SKC M14/M19 Q1029 R04/8/0065NOSIG RMK QFE740/0987
Loading
Personal Weather Stations






























Interactive Weather Map New forecast layout! Learn more

10-Day Weather Forecast

Advertisements
Track Severe Weather on mobile